sensor_id;sensor_type;location;lat;lon;timestamp;temperature;humidity
30186;DHT22;31152;49.190;8.122;2023-09-19T00:00:56;16.10;99.90
30186;DHT22;31152;49.190;8.122;2023-09-19T00:03:23;16.10;99.90
30186;DHT22;31152;49.190;8.122;2023-09-19T00:05:54;16.10;99.90
30186;DHT22;31152;49.190;8.122;2023-09-19T00:08:22;16.10;99.90
30186;DHT22;31152;49.190;8.122;2023-09-19T00:10:54;16.00;99.90
30186;DHT22;31152;49.190;8.122;2023-09-19T00:13:21;16.10;99.90
30186;DHT22;31152;49.190;8.122;2023-09-19T00:15:48;16.10;99.90
30186;DHT22;31152;49.190;8.122;2023-09-19T00:18:19;16.10;99.90
30186;DHT22;31152;49.190;8.122;2023-09-19T00:20:48;16.10;99.90
30186;DHT22;31152;49.190;8.122;2023-09-19T00:23:15;16.10;99.90
30186;DHT22;31152;49.190;8.122;2023-09-19T00:25:46;16.10;99.90
30186;DHT22;31152;49.190;8.122;2023-09-19T00:28:13;16.10;99.90
30186;DHT22;31152;49.190;8.122;2023-09-19T00:30:43;16.10;99.90
30186;DHT22;31152;49.190;8.122;2023-09-19T00:33:19;16.10;99.90
30186;DHT22;31152;49.190;8.122;2023-09-19T00:35:50;16.10;99.90
30186;DHT22;31152;49.190;8.122;2023-09-19T00:38:18;16.10;99.90
30186;DHT22;31152;49.190;8.122;2023-09-19T00:40:51;16.10;99.90
30186;DHT22;31152;49.190;8.122;2023-09-19T00:43:18;16.10;99.90
30186;DHT22;31152;49.190;8.122;2023-09-19T00:45:49;16.00;99.90
30186;DHT22;31152;49.190;8.122;2023-09-19T00:48:21;16.10;99.90
30186;DHT22;31152;49.190;8.122;2023-09-19T00:50:49;16.00;99.90
30186;DHT22;31152;49.190;8.122;2023-09-19T00:53:22;16.00;99.90
30186;DHT22;31152;49.190;8.122;2023-09-19T00:55:50;16.00;99.90
30186;DHT22;31152;49.190;8.122;2023-09-19T00:58:18;16.00;99.90
30186;DHT22;31152;49.190;8.122;2023-09-19T01:00:47;16.00;99.90
30186;DHT22;31152;49.190;8.122;2023-09-19T01:03:15;16.00;99.90
30186;DHT22;31152;49.190;8.122;2023-09-19T01:05:44;16.00;99.90
30186;DHT22;31152;49.190;8.122;2023-09-19T01:08:13;16.00;99.90
30186;DHT22;31152;49.190;8.122;2023-09-19T01:10:52;16.00;99.90
30186;DHT22;31152;49.190;8.122;2023-09-19T01:16:58;16.00;99.90
30186;DHT22;31152;49.190;8.122;2023-09-19T01:23:18;15.90;99.90
30186;DHT22;31152;49.190;8.122;2023-09-19T01:28:34;15.90;99.90
30186;DHT22;31152;49.190;8.122;2023-09-19T01:31:11;16.00;99.90
30186;DHT22;31152;49.190;8.122;2023-09-19T01:34:13;16.00;99.90
30186;DHT22;31152;49.190;8.122;2023-09-19T01:36:40;16.10;99.90
30186;DHT22;31152;49.190;8.122;2023-09-19T01:39:10;16.00;99.90
30186;DHT22;31152;49.190;8.122;2023-09-19T01:47:55;16.10;99.90
30186;DHT22;31152;49.190;8.122;2023-09-19T01:50:30;16.20;99.90
30186;DHT22;31152;49.190;8.122;2023-09-19T01:53:10;16.20;99.90
30186;DHT22;31152;49.190;8.122;2023-09-19T01:55:43;16.30;99.90
30186;DHT22;31152;49.190;8.122;2023-09-19T01:58:17;16.30;99.90
30186;DHT22;31152;49.190;8.122;2023-09-19T02:00:52;16.40;99.90
30186;DHT22;31152;49.190;8.122;2023-09-19T02:03:21;16.60;99.90
30186;DHT22;31152;49.190;8.122;2023-09-19T02:05:52;16.70;99.90
30186;DHT22;31152;49.190;8.122;2023-09-19T02:08:21;16.80;99.90
30186;DHT22;31152;49.190;8.122;2023-09-19T02:10:50;16.80;99.90
30186;DHT22;31152;49.190;8.122;2023-09-19T02:13:21;16.80;99.90
30186;DHT22;31152;49.190;8.122;2023-09-19T02:15:51;16.90;99.90
30186;DHT22;31152;49.190;8.122;2023-09-19T02:18:18;16.90;99.90
30186;DHT22;31152;49.190;8.122;2023-09-19T02:20:47;16.90;99.90
30186;DHT22;31152;49.190;8.122;2023-09-19T02:23:17;17.00;99.90
30186;DHT22;31152;49.190;8.122;2023-09-19T02:25:52;17.00;99.90
30186;DHT22;31152;49.190;8.122;2023-09-19T02:28:19;17.00;99.90
30186;DHT22;31152;49.190;8.122;2023-09-19T02:30:49;17.00;99.90
30186;DHT22;31152;49.190;8.122;2023-09-19T02:33:18;17.00;99.90
30186;DHT22;31152;49.190;8.122;2023-09-19T02:35:45;16.90;99.90
30186;DHT22;31152;49.190;8.122;2023-09-19T02:38:15;16.90;99.90
30186;DHT22;31152;49.190;8.122;2023-09-19T02:40:44;16.90;99.90
30186;DHT22;31152;49.190;8.122;2023-09-19T02:43:14;16.90;99.90
30186;DHT22;31152;49.190;8.122;2023-09-19T02:45:40;16.80;99.90
30186;DHT22;31152;49.190;8.122;2023-09-19T02:48:09;16.80;99.90
30186;DHT22;31152;49.190;8.122;2023-09-19T02:50:38;16.80;99.90
30186;DHT22;31152;49.190;8.122;2023-09-19T02:53:06;16.80;99.90
30186;DHT22;31152;49.190;8.122;2023-09-19T02:55:33;16.70;99.90
30186;DHT22;31152;49.190;8.122;2023-09-19T02:58:00;16.70;99.90
30186;DHT22;31152;49.190;8.122;2023-09-19T03:00:28;16.70;99.90
30186;DHT22;31152;49.190;8.122;2023-09-19T03:02:55;16.70;99.90
30186;DHT22;31152;49.190;8.122;2023-09-19T03:05:23;16.70;99.90
30186;DHT22;31152;49.190;8.122;2023-09-19T03:07:52;16.70;99.90
30186;DHT22;31152;49.190;8.122;2023-09-19T03:10:24;16.60;99.90
30186;DHT22;31152;49.190;8.122;2023-09-19T03:12:52;16.60;99.90
30186;DHT22;31152;49.190;8.122;2023-09-19T03:15:18;16.60;99.90
30186;DHT22;31152;49.190;8.122;2023-09-19T03:17:48;16.60;99.90
30186;DHT22;31152;49.190;8.122;2023-09-19T03:20:16;16.60;99.90
30186;DHT22;31152;49.190;8.122;2023-09-19T03:22:44;16.60;99.90
30186;DHT22;31152;49.190;8.122;2023-09-19T03:25:12;16.60;99.90
30186;DHT22;31152;49.190;8.122;2023-09-19T03:27:42;16.60;99.90
30186;DHT22;31152;49.190;8.122;2023-09-19T03:30:08;16.60;99.90
30186;DHT22;31152;49.190;8.122;2023-09-19T03:32:36;16.60;99.90
30186;DHT22;31152;49.190;8.122;2023-09-19T03:35:03;16.70;99.90
30186;DHT22;31152;49.190;8.122;2023-09-19T03:37:33;16.60;99.90
30186;DHT22;31152;49.190;8.122;2023-09-19T03:40:00;16.60;99.90
30186;DHT22;31152;49.190;8.122;2023-09-19T03:42:31;16.60;99.90
30186;DHT22;31152;49.190;8.122;2023-09-19T03:44:58;16.70;99.90
30186;DHT22;31152;49.190;8.122;2023-09-19T03:47:27;16.60;99.90
30186;DHT22;31152;49.190;8.122;2023-09-19T03:49:56;16.60;99.90
30186;DHT22;31152;49.190;8.122;2023-09-19T03:52:23;16.60;99.90
30186;DHT22;31152;49.190;8.122;2023-09-19T03:54:51;16.60;99.90
30186;DHT22;31152;49.190;8.122;2023-09-19T03:57:18;16.60;99.90
30186;DHT22;31152;49.190;8.122;2023-09-19T03:59:47;16.50;99.90
30186;DHT22;31152;49.190;8.122;2023-09-19T04:02:14;16.50;99.90
30186;DHT22;31152;49.190;8.122;2023-09-19T04:04:49;16.50;99.90
30186;DHT22;31152;49.190;8.122;2023-09-19T04:07:19;16.50;99.90
30186;DHT22;31152;49.190;8.122;2023-09-19T04:09:49;16.50;99.90
30186;DHT22;31152;49.190;8.122;2023-09-19T04:12:16;16.50;99.90
30186;DHT22;31152;49.190;8.122;2023-09-19T04:14:46;16.50;99.90
30186;DHT22;31152;49.190;8.122;2023-09-19T04:17:13;16.40;99.90
30186;DHT22;31152;49.190;8.122;2023-09-19T04:19:40;16.40;99.90
30186;DHT22;31152;49.190;8.122;2023-09-19T04:22:08;16.40;99.90
30186;DHT22;31152;49.190;8.122;2023-09-19T04:24:35;16.40;99.90
30186;DHT22;31152;49.190;8.122;2023-09-19T04:27:05;16.40;99.90
30186;DHT22;31152;49.190;8.122;2023-09-19T04:29:31;16.40;99.90
30186;DHT22;31152;49.190;8.122;2023-09-19T04:31:58;16.30;99.90
30186;DHT22;31152;49.190;8.122;2023-09-19T04:34:25;16.30;99.90
30186;DHT22;31152;49.190;8.122;2023-09-19T04:36:54;16.30;99.90
30186;DHT22;31152;49.190;8.122;2023-09-19T04:39:24;16.30;99.90
30186;DHT22;31152;49.190;8.122;2023-09-19T04:41:52;16.30;99.90
30186;DHT22;31152;49.190;8.122;2023-09-19T04:44:19;16.30;99.90
30186;DHT22;31152;49.190;8.122;2023-09-19T04:46:46;16.30;99.90
30186;DHT22;31152;49.190;8.122;2023-09-19T04:49:13;16.20;99.90
30186;DHT22;31152;49.190;8.122;2023-09-19T04:51:42;16.30;99.90
30186;DHT22;31152;49.190;8.122;2023-09-19T04:54:09;16.20;99.90
30186;DHT22;31152;49.190;8.122;2023-09-19T04:56:36;16.20;99.90
30186;DHT22;31152;49.190;8.122;2023-09-19T04:59:02;16.20;99.90
30186;DHT22;31152;49.190;8.122;2023-09-19T05:01:29;16.10;99.90
30186;DHT22;31152;49.190;8.122;2023-09-19T05:03:56;16.00;99.90
30186;DHT22;31152;49.190;8.122;2023-09-19T05:06:23;16.00;99.90
30186;DHT22;31152;49.190;8.122;2023-09-19T05:08:50;16.00;99.90
30186;DHT22;31152;49.190;8.122;2023-09-19T05:11:20;16.00;99.90
30186;DHT22;31152;49.190;8.122;2023-09-19T05:13:49;15.90;99.90
30186;DHT22;31152;49.190;8.122;2023-09-19T05:16:19;15.90;99.90
30186;DHT22;31152;49.190;8.122;2023-09-19T05:18:46;15.90;99.90
30186;DHT22;31152;49.190;8.122;2023-09-19T05:21:15;15.90;99.90
30186;DHT22;31152;49.190;8.122;2023-09-19T05:23:43;15.80;99.90
30186;DHT22;31152;49.190;8.122;2023-09-19T05:26:14;15.90;99.90
30186;DHT22;31152;49.190;8.122;2023-09-19T05:28:43;15.80;99.90
30186;DHT22;31152;49.190;8.122;2023-09-19T05:31:10;15.80;99.90
30186;DHT22;31152;49.190;8.122;2023-09-19T05:33:36;15.80;99.90
30186;DHT22;31152;49.190;8.122;2023-09-19T05:36:04;15.80;99.90
30186;DHT22;31152;49.190;8.122;2023-09-19T05:38:31;15.80;99.90
30186;DHT22;31152;49.190;8.122;2023-09-19T05:41:00;15.80;99.90
30186;DHT22;31152;49.190;8.122;2023-09-19T05:43:28;15.80;99.90
30186;DHT22;31152;49.190;8.122;2023-09-19T05:45:55;15.80;99.90
30186;DHT22;31152;49.190;8.122;2023-09-19T05:48:23;15.80;99.90
30186;DHT22;31152;49.190;8.122;2023-09-19T05:50:49;15.80;99.90
30186;DHT22;31152;49.190;8.122;2023-09-19T05:53:16;15.80;99.90
30186;DHT22;31152;49.190;8.122;2023-09-19T05:55:45;15.80;99.90
30186;DHT22;31152;49.190;8.122;2023-09-19T05:58:12;15.80;99.90
30186;DHT22;31152;49.190;8.122;2023-09-19T06:00:44;15.80;99.90
30186;DHT22;31152;49.190;8.122;2023-09-19T06:03:13;15.80;99.90
30186;DHT22;31152;49.190;8.122;2023-09-19T06:05:43;15.80;99.90
30186;DHT22;31152;49.190;8.122;2023-09-19T06:08:12;15.80;99.90
30186;DHT22;31152;49.190;8.122;2023-09-19T06:10:39;15.90;99.90
30186;DHT22;31152;49.190;8.122;2023-09-19T06:13:06;15.90;99.90
30186;DHT22;31152;49.190;8.122;2023-09-19T06:15:36;15.90;99.90
30186;DHT22;31152;49.190;8.122;2023-09-19T06:18:10;16.00;99.90
30186;DHT22;31152;49.190;8.122;2023-09-19T06:20:38;16.00;99.90
30186;DHT22;31152;49.190;8.122;2023-09-19T06:23:10;16.00;99.90
30186;DHT22;31152;49.190;8.122;2023-09-19T06:25:39;16.10;99.90
30186;DHT22;31152;49.190;8.122;2023-09-19T06:28:07;16.10;99.90
30186;DHT22;31152;49.190;8.122;2023-09-19T06:30:34;16.10;99.90
30186;DHT22;31152;49.190;8.122;2023-09-19T06:33:02;16.20;99.90
30186;DHT22;31152;49.190;8.122;2023-09-19T06:35:32;16.20;99.90
30186;DHT22;31152;49.190;8.122;2023-09-19T06:38:02;16.20;99.90
30186;DHT22;31152;49.190;8.122;2023-09-19T06:40:30;16.30;99.90
30186;DHT22;31152;49.190;8.122;2023-09-19T06:42:57;16.30;99.90
30186;DHT22;31152;49.190;8.122;2023-09-19T06:45:24;16.40;99.90
30186;DHT22;31152;49.190;8.122;2023-09-19T06:47:56;16.40;99.90
30186;DHT22;31152;49.190;8.122;2023-09-19T06:50:26;16.40;99.90
30186;DHT22;31152;49.190;8.122;2023-09-19T06:52:55;16.50;99.90
30186;DHT22;31152;49.190;8.122;2023-09-19T06:55:26;16.60;99.90
30186;DHT22;31152;49.190;8.122;2023-09-19T06:57:59;16.60;99.90
30186;DHT22;31152;49.190;8.122;2023-09-19T07:00:26;16.70;99.90
30186;DHT22;31152;49.190;8.122;2023-09-19T07:03:05;16.80;99.90
30186;DHT22;31152;49.190;8.122;2023-09-19T07:05:38;16.80;99.90
30186;DHT22;31152;49.190;8.122;2023-09-19T07:08:08;16.80;99.90
30186;DHT22;31152;49.190;8.122;2023-09-19T07:10:38;16.90;99.90
30186;DHT22;31152;49.190;8.122;2023-09-19T07:13:07;17.00;99.90
30186;DHT22;31152;49.190;8.122;2023-09-19T07:15:38;17.10;99.90
30186;DHT22;31152;49.190;8.122;2023-09-19T07:18:08;17.20;99.90
30186;DHT22;31152;49.190;8.122;2023-09-19T07:20:38;17.30;99.90
30186;DHT22;31152;49.190;8.122;2023-09-19T07:23:05;17.30;99.90
30186;DHT22;31152;49.190;8.122;2023-09-19T07:25:35;17.40;99.90
30186;DHT22;31152;49.190;8.122;2023-09-19T07:28:02;17.40;99.90
30186;DHT22;31152;49.190;8.122;2023-09-19T07:30:31;17.50;99.90
30186;DHT22;31152;49.190;8.122;2023-09-19T07:32:58;17.50;99.90
30186;DHT22;31152;49.190;8.122;2023-09-19T07:35:29;17.50;99.90
30186;DHT22;31152;49.190;8.122;2023-09-19T07:37:56;17.60;99.90
30186;DHT22;31152;49.190;8.122;2023-09-19T07:40:23;17.60;99.90
30186;DHT22;31152;49.190;8.122;2023-09-19T07:42:51;17.60;99.90
30186;DHT22;31152;49.190;8.122;2023-09-19T07:45:18;17.70;99.90
30186;DHT22;31152;49.190;8.122;2023-09-19T07:47:46;17.60;99.90
30186;DHT22;31152;49.190;8.122;2023-09-19T07:50:14;17.70;99.90
30186;DHT22;31152;49.190;8.122;2023-09-19T07:52:42;17.80;99.90
30186;DHT22;31152;49.190;8.122;2023-09-19T07:55:09;17.80;99.90
30186;DHT22;31152;49.190;8.122;2023-09-19T07:57:38;17.90;99.90
30186;DHT22;31152;49.190;8.122;2023-09-19T08:00:05;17.90;99.90
30186;DHT22;31152;49.190;8.122;2023-09-19T08:02:37;18.00;99.90
30186;DHT22;31152;49.190;8.122;2023-09-19T08:05:08;18.10;99.90
30186;DHT22;31152;49.190;8.122;2023-09-19T08:07:42;18.10;99.90
30186;DHT22;31152;49.190;8.122;2023-09-19T08:10:10;18.10;99.90
30186;DHT22;31152;49.190;8.122;2023-09-19T08:12:45;18.10;99.90
30186;DHT22;31152;49.190;8.122;2023-09-19T08:15:18;18.20;99.90
30186;DHT22;31152;49.190;8.122;2023-09-19T08:17:50;18.20;99.90
30186;DHT22;31152;49.190;8.122;2023-09-19T08:20:17;18.20;99.90
30186;DHT22;31152;49.190;8.122;2023-09-19T08:22:49;18.30;99.90
30186;DHT22;31152;49.190;8.122;2023-09-19T08:25:19;18.20;99.90
30186;DHT22;31152;49.190;8.122;2023-09-19T08:27:47;18.20;99.90
30186;DHT22;31152;49.190;8.122;2023-09-19T08:30:19;18.20;99.90
30186;DHT22;31152;49.190;8.122;2023-09-19T08:32:51;18.30;99.90
30186;DHT22;31152;49.190;8.122;2023-09-19T08:35:18;18.40;99.90
30186;DHT22;31152;49.190;8.122;2023-09-19T08:37:48;18.50;99.90
30186;DHT22;31152;49.190;8.122;2023-09-19T08:40:18;18.60;99.90
30186;DHT22;31152;49.190;8.122;2023-09-19T08:42:53;18.60;99.90
30186;DHT22;31152;49.190;8.122;2023-09-19T08:45:24;18.60;99.90
30186;DHT22;31152;49.190;8.122;2023-09-19T08:50:41;18.70;99.90
30186;DHT22;31152;49.190;8.122;2023-09-19T08:53:19;18.80;99.90
30186;DHT22;31152;49.190;8.122;2023-09-19T08:55:49;18.80;99.90
30186;DHT22;31152;49.190;8.122;2023-09-19T08:58:19;18.80;99.90
30186;DHT22;31152;49.190;8.122;2023-09-19T09:00:52;18.60;99.90
30186;DHT22;31152;49.190;8.122;2023-09-19T09:03:20;18.50;99.90
30186;DHT22;31152;49.190;8.122;2023-09-19T09:05:49;18.30;99.90
30186;DHT22;31152;49.190;8.122;2023-09-19T09:08:19;18.30;99.90
30186;DHT22;31152;49.190;8.122;2023-09-19T09:10:49;18.40;99.90
30186;DHT22;31152;49.190;8.122;2023-09-19T09:13:17;18.60;99.90
30186;DHT22;31152;49.190;8.122;2023-09-19T09:15:44;18.90;99.90
30186;DHT22;31152;49.190;8.122;2023-09-19T09:18:11;19.10;99.90
30186;DHT22;31152;49.190;8.122;2023-09-19T09:20:38;19.30;99.90
30186;DHT22;31152;49.190;8.122;2023-09-19T09:23:07;19.50;99.90
30186;DHT22;31152;49.190;8.122;2023-09-19T09:25:53;19.60;99.90
30186;DHT22;31152;49.190;8.122;2023-09-19T09:28:27;19.60;99.90
30186;DHT22;31152;49.190;8.122;2023-09-19T09:30:58;19.60;99.90
30186;DHT22;31152;49.190;8.122;2023-09-19T09:33:25;19.50;99.90
30186;DHT22;31152;49.190;8.122;2023-09-19T09:35:57;19.50;99.90
30186;DHT22;31152;49.190;8.122;2023-09-19T09:38:30;19.60;99.90
30186;DHT22;31152;49.190;8.122;2023-09-19T09:41:10;19.90;99.90
30186;DHT22;31152;49.190;8.122;2023-09-19T09:43:42;20.00;99.90
30186;DHT22;31152;49.190;8.122;2023-09-19T09:49:07;20.00;99.90
30186;DHT22;31152;49.190;8.122;2023-09-19T09:54:29;20.20;99.90
30186;DHT22;31152;49.190;8.122;2023-09-19T09:57:10;20.20;99.90
30186;DHT22;31152;49.190;8.122;2023-09-19T09:59:58;20.40;99.90
30186;DHT22;31152;49.190;8.122;2023-09-19T10:02:29;20.40;99.90
30186;DHT22;31152;49.190;8.122;2023-09-19T10:05:14;20.20;99.90
30186;DHT22;31152;49.190;8.122;2023-09-19T10:07:54;19.90;99.90
30186;DHT22;31152;49.190;8.122;2023-09-19T10:10:37;19.90;99.90
30186;DHT22;31152;49.190;8.122;2023-09-19T10:13:14;19.70;99.90
30186;DHT22;31152;49.190;8.122;2023-09-19T10:15:49;19.60;99.90
30186;DHT22;31152;49.190;8.122;2023-09-19T10:18:24;19.50;99.90
30186;DHT22;31152;49.190;8.122;2023-09-19T10:20:53;19.50;99.90
30186;DHT22;31152;49.190;8.122;2023-09-19T10:23:22;19.50;99.90
30186;DHT22;31152;49.190;8.122;2023-09-19T10:25:53;19.70;99.90
30186;DHT22;31152;49.190;8.122;2023-09-19T10:28:21;19.90;99.90
30186;DHT22;31152;49.190;8.122;2023-09-19T10:30:51;20.10;99.90
30186;DHT22;31152;49.190;8.122;2023-09-19T10:33:21;20.30;99.90
30186;DHT22;31152;49.190;8.122;2023-09-19T10:35:50;20.40;99.90
30186;DHT22;31152;49.190;8.122;2023-09-19T10:38:27;20.50;99.90
30186;DHT22;31152;49.190;8.122;2023-09-19T10:40:57;20.60;99.90
30186;DHT22;31152;49.190;8.122;2023-09-19T10:43:32;20.50;99.90
30186;DHT22;31152;49.190;8.122;2023-09-19T10:46:07;20.50;99.90
30186;DHT22;31152;49.190;8.122;2023-09-19T10:48:34;20.40;99.90
30186;DHT22;31152;49.190;8.122;2023-09-19T10:53:50;20.50;99.90
30186;DHT22;31152;49.190;8.122;2023-09-19T10:56:38;20.70;99.90
30186;DHT22;31152;49.190;8.122;2023-09-19T10:59:09;20.80;99.80
30186;DHT22;31152;49.190;8.122;2023-09-19T11:04:27;21.10;99.30
30186;DHT22;31152;49.190;8.122;2023-09-19T11:07:04;21.10;99.80
30186;DHT22;31152;49.190;8.122;2023-09-19T11:09:54;21.00;99.00
30186;DHT22;31152;49.190;8.122;2023-09-19T11:14:58;21.10;97.40
30186;DHT22;31152;49.190;8.122;2023-09-19T11:17:41;21.20;97.30
30186;DHT22;31152;49.190;8.122;2023-09-19T11:20:19;21.20;97.40
30186;DHT22;31152;49.190;8.122;2023-09-19T11:30:50;21.70;96.50
30186;DHT22;31152;49.190;8.122;2023-09-19T11:33:26;21.70;96.00
30186;DHT22;31152;49.190;8.122;2023-09-19T11:36:10;21.90;95.40
30186;DHT22;31152;49.190;8.122;2023-09-19T11:46:53;22.20;95.20
30186;DHT22;31152;49.190;8.122;2023-09-19T11:49:29;22.50;95.00
30186;DHT22;31152;49.190;8.122;2023-09-19T11:52:00;22.60;94.30
30186;DHT22;31152;49.190;8.122;2023-09-19T11:54:36;22.30;93.30
30186;DHT22;31152;49.190;8.122;2023-09-19T11:57:07;22.00;94.30
30186;DHT22;31152;49.190;8.122;2023-09-19T11:59:39;21.90;94.80
30186;DHT22;31152;49.190;8.122;2023-09-19T12:02:10;22.00;95.00
30186;DHT22;31152;49.190;8.122;2023-09-19T12:04:43;22.00;94.40
30186;DHT22;31152;49.190;8.122;2023-09-19T12:07:15;22.10;95.20
30186;DHT22;31152;49.190;8.122;2023-09-19T12:09:48;22.30;94.90
30186;DHT22;31152;49.190;8.122;2023-09-19T12:12:28;22.20;94.60
30186;DHT22;31152;49.190;8.122;2023-09-19T12:14:59;22.10;95.50
30186;DHT22;31152;49.190;8.122;2023-09-19T12:17:40;22.10;95.10
30186;DHT22;31152;49.190;8.122;2023-09-19T12:20:10;22.00;94.70
30186;DHT22;31152;49.190;8.122;2023-09-19T12:22:48;22.40;94.80
30186;DHT22;31152;49.190;8.122;2023-09-19T12:25:16;22.50;93.90
30186;DHT22;31152;49.190;8.122;2023-09-19T12:27:47;22.30;94.00
30186;DHT22;31152;49.190;8.122;2023-09-19T12:30:15;22.10;93.80
30186;DHT22;31152;49.190;8.122;2023-09-19T12:32:47;22.20;94.20
30186;DHT22;31152;49.190;8.122;2023-09-19T12:35:33;22.50;94.30
30186;DHT22;31152;49.190;8.122;2023-09-19T12:38:02;22.70;92.90
30186;DHT22;31152;49.190;8.122;2023-09-19T12:40:31;22.50;92.90
30186;DHT22;31152;49.190;8.122;2023-09-19T12:43:00;22.30;93.10
30186;DHT22;31152;49.190;8.122;2023-09-19T12:45:31;21.90;93.50
30186;DHT22;31152;49.190;8.122;2023-09-19T12:48:22;21.90;94.50
30186;DHT22;31152;49.190;8.122;2023-09-19T12:51:10;22.20;94.50
30186;DHT22;31152;49.190;8.122;2023-09-19T12:53:44;22.50;93.90
30186;DHT22;31152;49.190;8.122;2023-09-19T12:56:13;22.50;93.50
30186;DHT22;31152;49.190;8.122;2023-09-19T12:58:53;22.40;93.40
30186;DHT22;31152;49.190;8.122;2023-09-19T13:01:24;22.40;93.30
30186;DHT22;31152;49.190;8.122;2023-09-19T13:06:55;22.40;93.40
30186;DHT22;31152;49.190;8.122;2023-09-19T13:09:28;22.60;93.70
30186;DHT22;31152;49.190;8.122;2023-09-19T13:12:35;22.90;93.60
30186;DHT22;31152;49.190;8.122;2023-09-19T13:15:11;23.10;92.60
30186;DHT22;31152;49.190;8.122;2023-09-19T13:17:49;22.90;92.70
30186;DHT22;31152;49.190;8.122;2023-09-19T13:20:26;23.10;92.60
30186;DHT22;31152;49.190;8.122;2023-09-19T13:22:58;22.90;92.80
30186;DHT22;31152;49.190;8.122;2023-09-19T13:25:30;22.70;93.10
30186;DHT22;31152;49.190;8.122;2023-09-19T13:28:05;22.60;92.90
30186;DHT22;31152;49.190;8.122;2023-09-19T13:30:37;22.60;93.00
30186;DHT22;31152;49.190;8.122;2023-09-19T13:33:12;22.50;93.20
30186;DHT22;31152;49.190;8.122;2023-09-19T13:35:50;22.50;93.70
30186;DHT22;31152;49.190;8.122;2023-09-19T13:38:17;22.50;93.40
30186;DHT22;31152;49.190;8.122;2023-09-19T13:40:48;22.40;93.70
30186;DHT22;31152;49.190;8.122;2023-09-19T13:43:16;22.50;94.30
30186;DHT22;31152;49.190;8.122;2023-09-19T13:45:43;22.60;93.80
30186;DHT22;31152;49.190;8.122;2023-09-19T13:48:10;22.70;93.60
30186;DHT22;31152;49.190;8.122;2023-09-19T13:50:42;22.90;93.50
30186;DHT22;31152;49.190;8.122;2023-09-19T13:53:09;22.90;93.50
30186;DHT22;31152;49.190;8.122;2023-09-19T13:55:39;22.80;93.40
30186;DHT22;31152;49.190;8.122;2023-09-19T13:58:06;22.70;94.10
30186;DHT22;31152;49.190;8.122;2023-09-19T14:00:34;22.40;93.70
30186;DHT22;31152;49.190;8.122;2023-09-19T14:03:01;22.40;94.20
30186;DHT22;31152;49.190;8.122;2023-09-19T14:05:28;22.40;94.20
30186;DHT22;31152;49.190;8.122;2023-09-19T14:07:56;22.30;94.00
30186;DHT22;31152;49.190;8.122;2023-09-19T14:10:28;22.30;94.20
30186;DHT22;31152;49.190;8.122;2023-09-19T14:12:57;22.40;94.50
30186;DHT22;31152;49.190;8.122;2023-09-19T14:15:27;22.50;94.60
30186;DHT22;31152;49.190;8.122;2023-09-19T14:17:57;22.60;94.20
30186;DHT22;31152;49.190;8.122;2023-09-19T14:20:26;22.40;94.10
30186;DHT22;31152;49.190;8.122;2023-09-19T14:22:54;22.30;94.30
30186;DHT22;31152;49.190;8.122;2023-09-19T14:25:22;22.10;95.10
30186;DHT22;31152;49.190;8.122;2023-09-19T14:27:50;22.00;95.00
30186;DHT22;31152;49.190;8.122;2023-09-19T14:30:17;22.10;94.90
30186;DHT22;31152;49.190;8.122;2023-09-19T14:32:47;22.00;95.10
30186;DHT22;31152;49.190;8.122;2023-09-19T14:35:14;21.90;95.10
30186;DHT22;31152;49.190;8.122;2023-09-19T14:37:42;22.00;95.00
30186;DHT22;31152;49.190;8.122;2023-09-19T14:40:09;22.00;95.10
30186;DHT22;31152;49.190;8.122;2023-09-19T14:42:42;22.10;95.40
30186;DHT22;31152;49.190;8.122;2023-09-19T14:45:11;22.10;95.60
30186;DHT22;31152;49.190;8.122;2023-09-19T14:47:38;22.20;95.70
30186;DHT22;31152;49.190;8.122;2023-09-19T14:50:06;22.40;95.60
30186;DHT22;31152;49.190;8.122;2023-09-19T14:52:33;22.50;95.50
30186;DHT22;31152;49.190;8.122;2023-09-19T14:55:05;22.70;95.30
30186;DHT22;31152;49.190;8.122;2023-09-19T14:57:32;22.60;94.50
30186;DHT22;31152;49.190;8.122;2023-09-19T14:59:59;22.70;95.10
30186;DHT22;31152;49.190;8.122;2023-09-19T15:02:33;22.60;94.90
30186;DHT22;31152;49.190;8.122;2023-09-19T15:05:01;22.50;94.40
30186;DHT22;31152;49.190;8.122;2023-09-19T15:07:28;22.40;95.30
30186;DHT22;31152;49.190;8.122;2023-09-19T15:09:55;22.50;95.40
30186;DHT22;31152;49.190;8.122;2023-09-19T15:12:25;22.60;94.50
30186;DHT22;31152;49.190;8.122;2023-09-19T15:15:01;22.50;94.90
30186;DHT22;31152;49.190;8.122;2023-09-19T15:17:28;22.60;95.00
30186;DHT22;31152;49.190;8.122;2023-09-19T15:19:58;22.70;94.70
30186;DHT22;31152;49.190;8.122;2023-09-19T15:22:24;22.80;94.00
30186;DHT22;31152;49.190;8.122;2023-09-19T15:24:54;22.70;94.10
30186;DHT22;31152;49.190;8.122;2023-09-19T15:27:22;22.70;94.30
30186;DHT22;31152;49.190;8.122;2023-09-19T15:29:48;22.70;94.20
30186;DHT22;31152;49.190;8.122;2023-09-19T15:32:18;22.70;95.00
30186;DHT22;31152;49.190;8.122;2023-09-19T15:34:47;22.80;94.80
30186;DHT22;31152;49.190;8.122;2023-09-19T15:37:16;22.70;95.00
30186;DHT22;31152;49.190;8.122;2023-09-19T15:39:43;22.80;94.90
30186;DHT22;31152;49.190;8.122;2023-09-19T15:42:11;22.70;94.80
30186;DHT22;31152;49.190;8.122;2023-09-19T20:11:00;18.20;99.90
30186;DHT22;31152;49.190;8.122;2023-09-19T20:13:27;18.00;99.90
30186;DHT22;31152;49.190;8.122;2023-09-19T20:15:57;18.00;99.90
30186;DHT22;31152;49.190;8.122;2023-09-19T20:18:26;18.00;99.90
30186;DHT22;31152;49.190;8.122;2023-09-19T20:20:54;18.00;99.90
30186;DHT22;31152;49.190;8.122;2023-09-19T20:23:24;18.00;99.90
30186;DHT22;31152;49.190;8.122;2023-09-19T20:25:51;18.00;99.90
30186;DHT22;31152;49.190;8.122;2023-09-19T20:28:18;18.00;99.90
30186;DHT22;31152;49.190;8.122;2023-09-19T20:30:49;18.00;99.90
30186;DHT22;31152;49.190;8.122;2023-09-19T20:33:16;17.90;99.90
30186;DHT22;31152;49.190;8.122;2023-09-19T20:35:43;17.90;99.90
30186;DHT22;31152;49.190;8.122;2023-09-19T20:38:10;17.90;99.90
30186;DHT22;31152;49.190;8.122;2023-09-19T20:40:41;17.90;99.90
30186;DHT22;31152;49.190;8.122;2023-09-19T20:43:10;17.90;99.90
30186;DHT22;31152;49.190;8.122;2023-09-19T20:45:39;17.90;99.90
30186;DHT22;31152;49.190;8.122;2023-09-19T20:48:10;17.90;99.90
30186;DHT22;31152;49.190;8.122;2023-09-19T20:50:38;17.90;99.90
30186;DHT22;31152;49.190;8.122;2023-09-19T20:53:06;17.90;99.90
30186;DHT22;31152;49.190;8.122;2023-09-19T20:55:37;17.90;99.90
30186;DHT22;31152;49.190;8.122;2023-09-19T20:58:04;17.90;99.90
30186;DHT22;31152;49.190;8.122;2023-09-19T21:00:35;17.90;99.90
30186;DHT22;31152;49.190;8.122;2023-09-19T21:03:05;17.80;99.90
30186;DHT22;31152;49.190;8.122;2023-09-19T21:05:32;17.80;99.90
30186;DHT22;31152;49.190;8.122;2023-09-19T21:07:59;17.80;99.90